createdAt,value
2017-08-09T00:00:38.092Z,73.22
2017-08-09T00:01:18.988Z,72.64
2017-08-09T00:01:59.908Z,72.74
2017-08-09T00:02:40.825Z,72.74
2017-08-09T00:03:21.724Z,73.22
2017-08-09T00:04:02.621Z,73.13
2017-08-09T00:04:43.508Z,73.13
2017-08-09T00:05:24.403Z,72.74
2017-08-09T00:06:05.324Z,73.32
2017-08-09T00:06:46.216Z,72.94
2017-08-09T00:07:27.109Z,72.45
2017-08-09T00:08:08.015Z,72.74
2017-08-09T00:08:48.893Z,73.07
2017-08-09T00:09:29.791Z,72.74
2017-08-09T00:10:10.688Z,72.78
2017-08-09T00:10:51.568Z,72.58
2017-08-09T00:11:32.465Z,72.36
2017-08-09T00:12:13.369Z,72.84
2017-08-09T00:12:54.245Z,72.68
2017-08-09T00:13:35.144Z,71.97
2017-08-09T00:14:16.048Z,72.06
2017-08-09T00:14:56.936Z,72.06
2017-08-09T00:15:37.818Z,72.45
2017-08-09T00:16:18.719Z,72.55
2017-08-09T00:16:59.603Z,72.55
2017-08-09T00:17:40.543Z,72.94
2017-08-09T00:18:21.433Z,73.03
2017-08-09T00:19:02.326Z,73.03
2017-08-09T00:19:43.217Z,72.55
2017-08-09T00:20:24.110Z,72.74
2017-08-09T00:21:05.004Z,72.74
2017-08-09T00:21:45.996Z,72.45
2017-08-09T00:22:26.896Z,73.13
2017-08-09T00:23:07.791Z,72.64
2017-08-09T00:23:48.684Z,73.13
2017-08-09T00:24:29.574Z,72.84
2017-08-09T00:25:10.462Z,73.13
2017-08-09T00:25:51.367Z,73.22
2017-08-09T00:26:32.237Z,72.84
2017-08-09T00:27:13.132Z,72.55
2017-08-09T00:27:54.040Z,73.52
2017-08-09T00:28:34.939Z,73.13
2017-08-09T00:29:15.933Z,73.13
2017-08-09T00:29:56.818Z,73.42
2017-08-09T00:30:37.715Z,72.94
2017-08-09T00:31:18.612Z,72.55
2017-08-09T00:31:59.532Z,72.64
2017-08-09T00:32:40.423Z,72.55
2017-08-09T00:33:21.326Z,73.13
2017-08-09T00:34:02.214Z,72.64
2017-08-09T00:34:43.114Z,72.55
2017-08-09T00:35:24.008Z,73.61
2017-08-09T00:36:04.898Z,73.22
2017-08-09T00:36:45.800Z,72.94
2017-08-09T00:37:26.694Z,72.84
2017-08-09T00:38:07.585Z,72.45
2017-08-09T00:38:48.480Z,73.71
2017-08-09T00:39:29.396Z,73.42
2017-08-09T00:40:10.290Z,72.74
2017-08-09T00:40:51.194Z,72.64
2017-08-09T00:41:32.077Z,73.61
2017-08-09T00:42:12.977Z,73.03
2017-08-09T00:42:53.869Z,73.32
2017-08-09T00:43:34.783Z,73.32
2017-08-09T00:44:15.691Z,73.32
2017-08-09T00:44:56.585Z,73.22
2017-08-09T00:45:37.482Z,73.42
2017-08-09T00:46:18.372Z,73.22
2017-08-09T00:46:59.259Z,73.32
2017-08-09T00:47:40.162Z,73.13
2017-08-09T00:48:21.058Z,73.13
2017-08-09T00:49:01.962Z,73.42
2017-08-09T00:49:42.865Z,73.9
2017-08-09T00:50:23.768Z,73.52
2017-08-09T00:51:04.662Z,73.22
2017-08-09T00:51:45.553Z,73.42
2017-08-09T00:52:26.451Z,73.13
2017-08-09T00:53:07.337Z,73.22
2017-08-09T00:53:48.238Z,73.13
2017-08-09T00:54:29.137Z,73.22
2017-08-09T00:55:10.018Z,73.32
2017-08-09T00:55:50.919Z,72.94
2017-08-09T00:56:31.822Z,73.32
2017-08-09T00:57:12.707Z,73.52
2017-08-09T00:57:53.597Z,73.13
2017-08-09T00:58:34.489Z,73.61
2017-08-09T00:59:15.380Z,73.58
2017-08-09T00:59:56.272Z,74
2017-08-09T01:00:37.170Z,73.9
2017-08-09T01:01:18.068Z,73.52
2017-08-09T01:01:58.967Z,73.32
2017-08-09T01:02:39.864Z,73.32
2017-08-09T01:03:20.755Z,73.19
2017-08-09T01:04:01.644Z,73.48
2017-08-09T01:04:42.537Z,73.19
2017-08-09T01:05:23.430Z,73.96
2017-08-09T01:06:04.330Z,73.48
2017-08-09T01:06:45.304Z,73.48
2017-08-09T01:07:26.104Z,73.77
2017-08-09T01:08:06.997Z,73.28
2017-08-09T01:08:47.888Z,73.48
2017-08-09T01:09:28.785Z,73.38
2017-08-09T01:10:09.681Z,73.28
2017-08-09T01:10:50.580Z,73.48
2017-08-09T01:11:31.470Z,73.09
2017-08-09T01:12:12.363Z,73.48
2017-08-09T01:12:54.712Z,73.28
2017-08-09T01:13:35.606Z,73.48
2017-08-09T01:14:16.507Z,74.06
2017-08-09T01:14:57.404Z,74.16
2017-08-09T01:15:38.309Z,73.86
2017-08-09T01:16:19.203Z,73.38
2017-08-09T01:17:00.097Z,73.48
2017-08-09T01:17:40.989Z,73.38
2017-08-09T01:18:21.882Z,73.38
2017-08-09T01:19:02.773Z,73.48
2017-08-09T01:19:43.698Z,73.19
2017-08-09T01:20:24.586Z,73.28
2017-08-09T01:21:05.489Z,73.32
2017-08-09T01:21:46.379Z,73.58
2017-08-09T01:22:27.280Z,73.71
2017-08-09T01:23:08.175Z,74.1
2017-08-09T01:23:49.079Z,73.96
2017-08-09T01:24:29.976Z,73.48
2017-08-09T01:25:10.875Z,73.86
2017-08-09T01:25:51.771Z,73.58
2017-08-09T01:26:32.662Z,73.67
2017-08-09T01:27:13.560Z,73.67
2017-08-09T01:27:54.463Z,73.67
2017-08-09T01:28:35.359Z,73.38
2017-08-09T01:29:16.247Z,73.67
2017-08-09T01:29:57.140Z,73.48
2017-08-09T01:30:38.031Z,73.48
2017-08-09T01:31:18.924Z,73.48
2017-08-09T01:31:59.818Z,73.96
2017-08-09T01:32:40.708Z,74.25
2017-08-09T01:33:21.599Z,74.16
2017-08-09T01:34:02.493Z,74.25
2017-08-09T01:34:43.390Z,73.67
2017-08-09T01:35:24.282Z,74.16
2017-08-09T01:36:05.319Z,73.58
2017-08-09T01:36:46.124Z,74.06
2017-08-09T01:37:27.020Z,74.35
2017-08-09T01:38:07.919Z,74.16
2017-08-09T01:38:48.818Z,74.19
2017-08-09T01:39:29.741Z,73.61
2017-08-09T01:40:10.638Z,74.1
2017-08-09T01:40:51.524Z,73.61
2017-08-09T01:41:32.435Z,73.48
2017-08-09T01:42:13.333Z,73.71
2017-08-09T01:42:54.230Z,73.71
2017-08-09T01:43:35.126Z,74
2017-08-09T01:44:16.023Z,74.19
2017-08-09T01:44:56.931Z,74.35
2017-08-09T01:45:37.823Z,74.16
2017-08-09T01:46:18.729Z,74.93
2017-08-09T01:46:59.622Z,74.83
2017-08-09T01:47:40.513Z,74.16
2017-08-09T01:48:21.439Z,74.44
2017-08-09T01:49:02.354Z,74.96
2017-08-09T01:49:43.231Z,74.38
2017-08-09T01:50:24.124Z,74.06
2017-08-09T01:51:05.014Z,74.06
2017-08-09T01:51:45.913Z,73.9
2017-08-09T01:52:26.799Z,73.96
2017-08-09T01:53:07.714Z,74
2017-08-09T01:53:48.605Z,74.19
2017-08-09T01:54:29.501Z,73.9
2017-08-09T01:55:10.443Z,74.19
2017-08-09T01:55:51.339Z,74.25
2017-08-09T01:56:32.242Z,74.19
2017-08-09T01:57:13.127Z,74.54
2017-08-09T01:57:54.027Z,74.64
2017-08-09T01:58:34.930Z,75.12
2017-08-09T01:59:15.816Z,75.02
2017-08-09T01:59:56.723Z,75.02
2017-08-09T02:00:37.610Z,75.12
2017-08-09T02:01:18.509Z,75.22
2017-08-09T02:01:59.402Z,75.02
2017-08-09T02:02:40.302Z,75.16
2017-08-09T02:03:21.194Z,75.02
2017-08-09T02:04:02.089Z,75.22
2017-08-09T02:04:42.982Z,75.41
2017-08-09T02:05:23.876Z,75.22
2017-08-09T02:06:04.776Z,75.31
2017-08-09T02:06:45.656Z,75.99
2017-08-09T02:07:26.553Z,75.89
2017-08-09T02:08:07.446Z,76.18
2017-08-09T02:08:48.343Z,76.63
2017-08-09T02:09:29.242Z,77.4
2017-08-09T02:10:10.143Z,76.67
2017-08-09T02:10:51.038Z,77.3
2017-08-09T02:11:31.936Z,77.73
2017-08-09T02:12:12.827Z,77.88
2017-08-09T02:12:53.723Z,77.92
2017-08-09T02:13:34.613Z,77.73
2017-08-09T02:14:15.506Z,77.83
2017-08-09T02:14:56.399Z,79.04
2017-08-09T02:15:37.289Z,78.85
2017-08-09T02:16:18.176Z,80.2
2017-08-09T02:16:59.193Z,80.2
2017-08-09T02:17:40.093Z,80.3
2017-08-09T02:18:20.993Z,80.39
2017-08-09T02:19:01.886Z,80.49
2017-08-09T02:19:42.783Z,80.87
2017-08-09T02:20:23.683Z,80.39
2017-08-09T02:21:04.578Z,81.07
2017-08-09T02:21:45.469Z,80
2017-08-09T02:22:26.367Z,80.49
2017-08-09T02:23:07.256Z,79.91
2017-08-09T02:23:48.156Z,81.65
2017-08-09T02:24:29.051Z,81.74
2017-08-09T02:25:09.948Z,81.07
2017-08-09T02:25:50.853Z,81.65
2017-08-09T02:26:31.747Z,81.9
2017-08-09T02:27:12.649Z,81.8
2017-08-09T02:27:53.541Z,82.61
2017-08-09T02:28:34.456Z,81.93
2017-08-09T02:29:15.358Z,82.71
2017-08-09T02:29:56.234Z,81.74
2017-08-09T02:30:37.148Z,82.71
2017-08-09T02:31:18.043Z,83.15
2017-08-09T02:31:58.939Z,83.25
2017-08-09T02:32:39.839Z,83.05
2017-08-09T02:33:20.720Z,83.53
2017-08-09T02:34:01.628Z,83.44
2017-08-09T02:34:42.533Z,82.96
2017-08-09T02:35:23.424Z,83.15
2017-08-09T02:36:04.318Z,83.25
2017-08-09T02:36:45.212Z,83.15
2017-08-09T02:37:26.110Z,83.15
2017-08-09T02:38:07.010Z,83.63
2017-08-09T02:38:47.906Z,83.34
2017-08-09T02:39:28.818Z,82.96
2017-08-09T02:40:09.702Z,83.44
2017-08-09T02:40:50.593Z,83.15
2017-08-09T02:41:31.494Z,84.01
2017-08-09T02:42:12.381Z,84.11
2017-08-09T02:42:53.277Z,83.25
2017-08-09T02:43:34.191Z,83.44
2017-08-09T02:44:15.165Z,84.11
2017-08-09T02:44:56.056Z,83.73
2017-08-09T02:45:36.952Z,83.15
2017-08-09T02:46:17.870Z,83.34
2017-08-09T02:46:58.751Z,83.4
2017-08-09T02:47:39.654Z,83.69
2017-08-09T02:48:20.536Z,83.3
2017-08-09T02:49:01.444Z,83.78
2017-08-09T02:49:42.331Z,83.78
2017-08-09T02:50:23.213Z,83.98
2017-08-09T02:51:04.100Z,83.98
2017-08-09T02:51:45.004Z,84.84
2017-08-09T02:52:25.887Z,84.36
2017-08-09T02:53:06.781Z,84.84
2017-08-09T02:53:47.680Z,83.78
2017-08-09T02:54:28.578Z,84.36
2017-08-09T02:55:09.476Z,84.36
2017-08-09T02:55:50.357Z,84.36
2017-08-09T02:56:31.249Z,84.41
2017-08-09T02:57:12.154Z,84.41
2017-08-09T02:57:53.080Z,84.31
2017-08-09T02:58:33.967Z,84.55
2017-08-09T02:59:14.863Z,84.59
2017-08-09T02:59:55.756Z,84.5
2017-08-09T03:00:36.662Z,84.89
2017-08-09T03:01:17.546Z,84.31
2017-08-09T03:01:58.432Z,84.17
2017-08-09T03:02:39.326Z,85.42
2017-08-09T03:03:20.220Z,85.33
2017-08-09T03:04:01.115Z,85.61
2017-08-09T03:04:42.016Z,85.52
2017-08-09T03:05:22.901Z,85.13
2017-08-09T03:06:03.835Z,86.25
2017-08-09T03:06:44.721Z,85.33
2017-08-09T03:07:25.615Z,85.42
2017-08-09T03:08:06.513Z,85.03
2017-08-09T03:08:47.392Z,85.13
2017-08-09T03:09:28.281Z,85.42
2017-08-09T03:10:09.182Z,85.52
2017-08-09T03:10:50.068Z,84.94
2017-08-09T03:11:30.952Z,85.33
2017-08-09T03:12:11.854Z,85.42
2017-08-09T03:12:52.745Z,85.33
2017-08-09T03:13:33.635Z,85.42
2017-08-09T03:14:14.535Z,85.03
2017-08-09T03:14:55.422Z,85.23
2017-08-09T03:15:36.314Z,85.13
2017-08-09T03:16:17.217Z,85.13
2017-08-09T03:16:58.101Z,85.42
2017-08-09T03:17:38.993Z,85.23
2017-08-09T03:18:19.922Z,85.47
2017-08-09T03:19:00.794Z,85.77
2017-08-09T03:19:41.686Z,85.57
2017-08-09T03:20:22.589Z,85.47
2017-08-09T03:21:03.502Z,85.86
2017-08-09T03:21:44.387Z,85.77
2017-08-09T03:22:25.278Z,86.15
2017-08-09T03:23:06.179Z,86.05
2017-08-09T03:23:47.081Z,86.54
2017-08-09T03:24:27.980Z,85.86
2017-08-09T03:25:08.874Z,85.67
2017-08-09T03:25:49.769Z,85.86
2017-08-09T03:26:30.677Z,85.67
2017-08-09T03:27:11.573Z,86.05
2017-08-09T03:27:52.460Z,86.44
2017-08-09T03:28:33.353Z,86.05
2017-08-09T03:29:14.251Z,86.63
2017-08-09T03:29:55.135Z,86.05
2017-08-09T03:30:36.079Z,86.25
2017-08-09T03:31:16.976Z,86.15
2017-08-09T03:31:57.875Z,86.54
2017-08-09T03:32:38.815Z,86.44
2017-08-09T03:33:19.686Z,86.05
2017-08-09T03:34:00.578Z,86.15
2017-08-09T03:34:41.477Z,86.25
2017-08-09T03:35:22.366Z,86.44
2017-08-09T03:36:03.262Z,86.15
2017-08-09T03:36:44.159Z,86.25
2017-08-09T03:37:25.060Z,86.35
2017-08-09T03:38:05.928Z,86.35
2017-08-09T03:38:46.836Z,86.44
2017-08-09T03:39:27.740Z,87.02
2017-08-09T03:40:08.650Z,86.35
2017-08-09T03:40:49.554Z,85.96
2017-08-09T03:41:30.485Z,85.96
2017-08-09T03:42:11.374Z,86.92
2017-08-09T03:42:52.264Z,87.12
2017-08-09T03:43:33.160Z,86.82
2017-08-09T03:44:14.051Z,86.82
2017-08-09T03:44:54.941Z,87.02
2017-08-09T03:45:35.877Z,86.73
2017-08-09T03:46:16.756Z,86.82
2017-08-09T03:46:57.655Z,87.02
2017-08-09T03:47:38.541Z,86.73
2017-08-09T03:48:19.440Z,86.44
2017-08-09T03:49:00.331Z,86.63
2017-08-09T03:49:41.211Z,86.54
2017-08-09T03:50:22.105Z,86.92
2017-08-09T03:51:02.998Z,86.82
2017-08-09T03:51:43.894Z,86.44
2017-08-09T03:52:24.789Z,86.73
2017-08-09T03:53:05.734Z,87.02
2017-08-09T03:53:46.635Z,87.3
2017-08-09T03:54:27.514Z,86.73
2017-08-09T03:55:08.418Z,86.92
2017-08-09T03:55:49.342Z,87.21
2017-08-09T03:56:30.238Z,86.82
2017-08-09T03:57:11.129Z,87.12
2017-08-09T03:57:52.016Z,86.35
2017-08-09T03:58:32.915Z,87.12
2017-08-09T03:59:13.817Z,87.02
2017-08-09T03:59:54.709Z,86.92
2017-08-09T04:00:35.591Z,86.92
2017-08-09T04:01:16.478Z,86.82
2017-08-09T04:01:57.370Z,86.35
2017-08-09T04:02:38.261Z,86.82
2017-08-09T04:03:19.162Z,87.02
2017-08-09T04:04:00.050Z,87.6
2017-08-09T04:04:40.963Z,87.3
2017-08-09T04:05:21.865Z,86.73
2017-08-09T04:06:02.759Z,87.3
2017-08-09T04:06:43.667Z,87.3
2017-08-09T04:07:24.552Z,86.92
2017-08-09T04:08:05.447Z,87.02
2017-08-09T04:08:46.349Z,87.02
2017-08-09T04:09:27.234Z,87.6
2017-08-09T04:10:08.113Z,86.82
2017-08-09T04:10:49.000Z,87.12
2017-08-09T04:11:29.890Z,86.73
2017-08-09T04:12:10.799Z,87.02
2017-08-09T04:12:51.709Z,86.82
2017-08-09T04:13:32.574Z,87.6
2017-08-09T04:14:13.478Z,87.21
2017-08-09T04:14:54.368Z,87.02
2017-08-09T04:15:35.255Z,87.02
2017-08-09T04:16:16.138Z,87.12
2017-08-09T04:16:57.034Z,86.73
2017-08-09T04:17:37.919Z,87.02
2017-08-09T04:18:18.815Z,87.02
2017-08-09T04:18:59.714Z,87.21
2017-08-09T04:19:40.623Z,87.02
2017-08-09T04:20:21.510Z,87.12
2017-08-09T04:21:02.431Z,87.02
2017-08-09T04:21:43.321Z,87.4
2017-08-09T04:22:24.218Z,87.4
2017-08-09T04:23:05.104Z,87.5
2017-08-09T04:23:45.997Z,87.02
2017-08-09T04:24:26.906Z,86.92
2017-08-09T04:25:07.788Z,87.3
2017-08-09T04:25:48.684Z,87.12
2017-08-09T04:26:29.574Z,87.02
2017-08-09T04:27:10.454Z,87.12
2017-08-09T04:27:51.356Z,87.02
2017-08-09T04:28:32.244Z,87.02
2017-08-09T04:29:13.131Z,87.6
2017-08-09T04:29:54.030Z,87.5
2017-08-09T04:30:34.930Z,87.4
2017-08-09T04:31:15.824Z,87.4
2017-08-09T04:31:56.733Z,87.5
2017-08-09T04:32:37.612Z,87.02
2017-08-09T04:33:18.499Z,87.5
2017-08-09T04:33:59.396Z,87.4
2017-08-09T04:34:40.285Z,87.6
2017-08-09T04:35:21.187Z,87.02
2017-08-09T04:36:02.056Z,87.3
2017-08-09T04:36:42.945Z,87.7
2017-08-09T04:37:23.829Z,87.4
2017-08-09T04:38:04.722Z,87.3
2017-08-09T04:38:45.617Z,87.21
2017-08-09T04:39:26.509Z,87.4
2017-08-09T04:40:07.403Z,87.21
2017-08-09T04:40:48.305Z,87.5
2017-08-09T04:41:29.195Z,87.4
2017-08-09T04:42:10.098Z,87.4
2017-08-09T04:42:50.987Z,87.7
2017-08-09T04:43:31.876Z,87.21
2017-08-09T04:44:12.776Z,87.02
2017-08-09T04:44:53.668Z,87.6
2017-08-09T04:45:34.550Z,87.02
2017-08-09T04:46:15.452Z,87.6
2017-08-09T04:46:56.340Z,87.3
2017-08-09T04:47:37.247Z,87.02
2017-08-09T04:48:18.180Z,87.26
2017-08-09T04:48:59.069Z,87.12
2017-08-09T04:49:39.977Z,87.3
2017-08-09T04:50:20.875Z,87.7
2017-08-09T04:51:01.769Z,87.65
2017-08-09T04:51:42.671Z,87.5
2017-08-09T04:52:23.563Z,87.98
2017-08-09T04:53:04.465Z,87.6
2017-08-09T04:53:45.356Z,87.7
2017-08-09T04:54:26.314Z,87.7
2017-08-09T04:55:07.201Z,87.7
2017-08-09T04:55:48.102Z,87.4
2017-08-09T04:56:28.994Z,87.4
2017-08-09T04:57:09.894Z,87.36
2017-08-09T04:57:50.784Z,87.65
2017-08-09T04:58:31.656Z,87.74
2017-08-09T04:59:12.550Z,87.26
2017-08-09T04:59:53.434Z,87.94
2017-08-09T05:00:34.331Z,87.94
2017-08-09T05:01:15.249Z,87.26
2017-08-09T05:01:56.137Z,87.55
2017-08-09T05:02:37.029Z,87.74
2017-08-09T05:03:17.927Z,88.04
2017-08-09T05:03:58.830Z,87.94
2017-08-09T05:04:39.722Z,87.74
2017-08-09T05:05:20.625Z,87.46
2017-08-09T05:06:01.522Z,87.74
2017-08-09T05:06:42.418Z,87.65
2017-08-09T05:07:23.316Z,88.08
2017-08-09T05:08:04.213Z,87.79
2017-08-09T05:08:45.110Z,87.98
2017-08-09T05:09:26.002Z,87.88
2017-08-09T05:10:06.901Z,87.84
2017-08-09T05:10:47.797Z,87.7
2017-08-09T05:11:28.694Z,87.98
2017-08-09T05:12:09.588Z,87.98
2017-08-09T05:12:50.481Z,87.98
2017-08-09T05:13:31.386Z,87.98
2017-08-09T05:14:12.294Z,87.88
2017-08-09T05:14:53.187Z,87.7
2017-08-09T05:15:34.080Z,88.04
2017-08-09T05:16:14.978Z,87.94
2017-08-09T05:16:55.871Z,87.94
2017-08-09T05:17:36.760Z,87.94
2017-08-09T05:18:17.659Z,87.79
2017-08-09T05:18:58.553Z,88.08
2017-08-09T05:19:39.455Z,87.98
2017-08-09T05:20:20.338Z,87.88
2017-08-09T05:21:01.220Z,88.31
2017-08-09T05:21:42.107Z,87.06
2017-08-09T05:22:23.008Z,87.45
2017-08-09T05:23:03.901Z,87.54
2017-08-09T05:23:44.792Z,87.26
2017-08-09T05:24:25.716Z,87.26
2017-08-09T05:25:06.604Z,86.77
2017-08-09T05:25:47.497Z,86.87
2017-08-09T05:26:28.395Z,87.1
2017-08-09T05:27:09.305Z,86.62
2017-08-09T05:27:50.195Z,86.52
2017-08-09T05:28:31.147Z,87.1
2017-08-09T05:29:12.047Z,86.43
2017-08-09T05:29:52.935Z,86.33
2017-08-09T05:30:33.820Z,86.62
2017-08-09T05:31:14.708Z,86.14
2017-08-09T05:31:55.612Z,86.33
2017-08-09T05:32:36.520Z,86.24
2017-08-09T05:33:17.410Z,86.29
2017-08-09T05:33:58.309Z,86.33
2017-08-09T05:34:39.196Z,86.48
2017-08-09T05:35:20.093Z,86.48
2017-08-09T05:36:00.990Z,86.77
2017-08-09T05:36:41.882Z,86.77
2017-08-09T05:37:22.782Z,87.06
2017-08-09T05:38:03.670Z,86.24
2017-08-09T05:38:44.570Z,86.33
2017-08-09T05:39:25.476Z,86.43
2017-08-09T05:40:06.344Z,86.58
2017-08-09T05:40:47.242Z,85.85
2017-08-09T05:41:28.161Z,86.29
2017-08-09T05:42:09.050Z,86.33
2017-08-09T05:42:49.949Z,86.52
2017-08-09T05:43:30.835Z,86.52
2017-08-09T05:44:11.750Z,86.52
2017-08-09T05:44:52.678Z,85.85
2017-08-09T05:45:33.560Z,86.33
2017-08-09T05:46:14.451Z,86.24
2017-08-09T05:46:55.360Z,86.24
2017-08-09T05:47:36.266Z,86.24
2017-08-09T05:48:17.149Z,86.33
2017-08-09T05:48:58.051Z,85.66
2017-08-09T05:49:38.987Z,85.75
2017-08-09T05:50:19.881Z,85.85
2017-08-09T05:51:00.782Z,85.75
2017-08-09T05:51:41.688Z,85.46
2017-08-09T05:52:22.579Z,84.98
2017-08-09T05:53:03.489Z,85.37
2017-08-09T05:53:44.371Z,85.46
2017-08-09T05:54:25.259Z,85.66
2017-08-09T05:55:06.700Z,85.27
2017-08-09T05:55:47.598Z,85.37
2017-08-09T05:56:28.485Z,85.23
2017-08-09T05:57:09.388Z,85.91
2017-08-09T05:57:50.276Z,86
2017-08-09T05:58:31.171Z,85.91
2017-08-09T05:59:12.096Z,85.81
2017-08-09T05:59:52.987Z,85.81
2017-08-09T06:00:33.894Z,85.71
2017-08-09T06:01:14.784Z,85.77
2017-08-09T06:01:55.678Z,86.25
2017-08-09T06:02:36.574Z,86.15
2017-08-09T06:03:17.476Z,86.35
2017-08-09T06:03:58.358Z,86.44
2017-08-09T06:04:39.249Z,86.29
2017-08-09T06:05:20.140Z,85.42
2017-08-09T06:06:01.048Z,85.42
2017-08-09T06:06:41.951Z,85.37
2017-08-09T06:07:22.846Z,84.98
2017-08-09T06:08:03.747Z,84.75
2017-08-09T06:08:44.643Z,84.75
2017-08-09T06:09:25.533Z,84.89
2017-08-09T06:10:06.431Z,84.75
2017-08-09T06:10:47.325Z,84.69
2017-08-09T06:11:28.236Z,84.89
2017-08-09T06:12:09.113Z,84.41
2017-08-09T06:12:50.013Z,84.01
2017-08-09T06:13:30.908Z,84.11
2017-08-09T06:14:11.820Z,84.98
2017-08-09T06:14:52.712Z,84.84
2017-08-09T06:15:33.613Z,85.13
2017-08-09T06:16:14.495Z,84.98
2017-08-09T06:16:55.388Z,84.59
2017-08-09T06:17:36.281Z,84.59
2017-08-09T06:18:17.185Z,84.5
2017-08-09T06:18:58.083Z,84.5
2017-08-09T06:19:38.968Z,84.75
2017-08-09T06:20:19.898Z,84.84
2017-08-09T06:21:00.799Z,84.65
2017-08-09T06:21:41.696Z,84.94
2017-08-09T06:22:22.598Z,84.75
2017-08-09T06:23:03.494Z,84.27
2017-08-09T06:23:44.389Z,84.65
2017-08-09T06:24:25.281Z,84.55
2017-08-09T06:25:06.181Z,85.13
2017-08-09T06:25:47.084Z,84.65
2017-08-09T06:26:28.007Z,85.03
2017-08-09T06:27:08.931Z,84.94
2017-08-09T06:27:49.828Z,84.75
2017-08-09T06:28:30.719Z,84.55
2017-08-09T06:29:11.608Z,84.65
2017-08-09T06:29:52.505Z,84.65
2017-08-09T06:30:33.397Z,84.94
2017-08-09T06:31:14.279Z,84.94
2017-08-09T06:31:55.163Z,84.75
2017-08-09T06:32:36.045Z,84.46
2017-08-09T06:33:16.962Z,84.61
2017-08-09T06:33:57.863Z,85.23
2017-08-09T06:34:38.750Z,84.75
2017-08-09T06:35:19.676Z,84.65
2017-08-09T06:36:00.563Z,84.75
2017-08-09T06:36:41.484Z,84.46
2017-08-09T06:37:22.383Z,84.94
2017-08-09T06:38:03.267Z,84.36
2017-08-09T06:38:44.172Z,84.46
2017-08-09T06:39:25.072Z,84.65
2017-08-09T06:40:05.957Z,84.84
2017-08-09T06:40:46.863Z,84.55
2017-08-09T06:41:27.750Z,84.84
2017-08-09T06:42:08.651Z,84.46
2017-08-09T06:42:49.551Z,84.17
2017-08-09T06:43:30.458Z,84.46
2017-08-09T06:44:11.338Z,84.17
2017-08-09T06:44:52.277Z,84.21
2017-08-09T06:45:33.146Z,84.11
2017-08-09T06:46:14.041Z,83.44
2017-08-09T06:46:54.933Z,83.25
2017-08-09T06:47:35.823Z,82.76
2017-08-09T06:48:16.716Z,82.96
2017-08-09T06:48:57.604Z,82.13
2017-08-09T06:49:38.588Z,81.88
2017-08-09T06:50:19.523Z,80.71
2017-08-09T06:51:00.450Z,78.23
2017-08-09T06:51:41.338Z,76.91
2017-08-09T06:52:22.232Z,76.49
2017-08-09T06:53:03.140Z,77.13
2017-08-09T06:53:44.039Z,76.93
2017-08-09T06:54:24.932Z,78.25
2017-08-09T06:55:05.841Z,78.83
2017-08-09T06:55:46.764Z,78.25
2017-08-09T06:56:27.660Z,77.38
2017-08-09T06:57:08.561Z,78.15
2017-08-09T06:57:49.453Z,77.76
2017-08-09T06:58:30.355Z,78.54
2017-08-09T06:59:11.245Z,77.96
2017-08-09T06:59:52.155Z,77.86
2017-08-09T07:00:33.055Z,77
2017-08-09T07:01:13.955Z,76.45
2017-08-09T07:01:54.847Z,76.49
2017-08-09T07:02:35.755Z,75.46
2017-08-09T07:03:16.652Z,72.24
2017-08-09T07:03:57.546Z,70.25
2017-08-09T07:04:38.451Z,68.34
2017-08-09T07:05:19.351Z,67.85
2017-08-09T07:06:00.260Z,67.79
2017-08-09T07:06:41.169Z,68.37
2017-08-09T07:07:22.086Z,68.66
2017-08-09T07:08:02.975Z,70.25
2017-08-09T07:08:43.869Z,66.89
2017-08-09T07:09:24.778Z,66.05
2017-08-09T07:10:05.689Z,66.69
2017-08-09T07:10:46.589Z,67.08
2017-08-09T07:11:27.519Z,66.2
2017-08-09T07:12:08.406Z,66.75
2017-08-09T07:12:49.320Z,69.11
2017-08-09T07:13:30.214Z,71.46
2017-08-09T07:14:11.107Z,73.2
2017-08-09T07:14:51.997Z,73.94
2017-08-09T07:15:32.904Z,73.88
2017-08-09T07:16:13.807Z,72.75
2017-08-09T07:16:54.705Z,72.6
2017-08-09T07:17:35.608Z,70.21
2017-08-09T07:18:16.515Z,69.76
2017-08-09T07:18:57.422Z,68.89
2017-08-09T07:19:38.319Z,66.69
2017-08-09T07:20:19.234Z,65.43
2017-08-09T07:21:00.133Z,65.27
2017-08-09T07:21:41.034Z,65.17
2017-08-09T07:22:21.925Z,65.56
2017-08-09T07:23:02.833Z,66.53
2017-08-09T07:23:43.734Z,65.59
2017-08-09T07:24:24.639Z,63.88
2017-08-09T07:25:05.542Z,63.36
2017-08-09T07:25:46.439Z,65.47
2017-08-09T07:26:27.346Z,62.98
2017-08-09T07:27:08.263Z,63.36
2017-08-09T07:27:49.169Z,61.42
2017-08-09T07:28:30.068Z,60.16
2017-08-09T07:29:10.965Z,63.13
2017-08-09T07:29:51.865Z,62.26
2017-08-09T07:30:32.780Z,60.94
2017-08-09T07:31:13.700Z,59.87
2017-08-09T07:31:54.595Z,60.97
2017-08-09T07:32:35.503Z,59.41
2017-08-09T07:33:16.416Z,57.67
2017-08-09T07:33:57.304Z,57.37
2017-08-09T07:34:38.204Z,57.47
2017-08-09T07:35:19.112Z,57.28
2017-08-09T07:36:00.000Z,57.44
2017-08-09T07:36:40.901Z,57.44
2017-08-09T07:37:21.800Z,57.7
2017-08-09T07:38:02.704Z,57.9
2017-08-09T07:38:43.609Z,60.13
2017-08-09T07:39:24.568Z,60.55
2017-08-09T07:40:05.428Z,61.91
2017-08-09T07:40:46.323Z,63.04
2017-08-09T07:41:27.212Z,63.27
2017-08-09T07:42:08.115Z,62.3
2017-08-09T07:42:49.010Z,60.3
2017-08-09T07:43:29.918Z,59.52
2017-08-09T07:44:10.804Z,60.82
2017-08-09T07:44:51.728Z,62.46
2017-08-09T07:45:32.629Z,62.01
2017-08-09T07:46:13.534Z,62.1
2017-08-09T07:46:54.423Z,61.65
2017-08-09T07:47:35.341Z,59
2017-08-09T07:48:16.242Z,56.18
2017-08-09T07:48:57.132Z,56.86
2017-08-09T07:49:38.037Z,56.7
2017-08-09T07:50:18.942Z,56.7
2017-08-09T07:50:59.845Z,56.57
2017-08-09T07:51:40.749Z,56.28
2017-08-09T07:52:21.661Z,56.11
2017-08-09T07:53:02.570Z,56.35
2017-08-09T07:53:43.476Z,57.87
2017-08-09T07:54:24.397Z,57.22
2017-08-09T07:55:05.324Z,56.57
2017-08-09T07:55:46.200Z,55.69
2017-08-09T07:56:27.095Z,55.11
2017-08-09T07:57:07.993Z,55.43
2017-08-09T07:57:48.889Z,55.63
2017-08-09T07:58:29.802Z,55.14
2017-08-09T07:59:10.753Z,54.68
2017-08-09T07:59:51.654Z,54
2017-08-09T08:00:32.550Z,53.64
2017-08-09T08:01:13.465Z,53.74
2017-08-09T08:01:54.361Z,53.64
2017-08-09T08:02:35.272Z,53.64
2017-08-09T08:03:16.175Z,52.67
2017-08-09T08:03:57.088Z,51.7
2017-08-09T08:04:37.998Z,51.72
2017-08-09T08:05:18.916Z,51.7
2017-08-09T08:05:59.813Z,51.99
2017-08-09T08:06:40.721Z,52.28
2017-08-09T08:07:21.635Z,51.89
2017-08-09T08:08:02.516Z,52.76
2017-08-09T08:08:43.426Z,53.71
2017-08-09T08:09:24.330Z,54.8
2017-08-09T08:10:05.237Z,57.65
2017-08-09T08:10:46.154Z,59.36
2017-08-09T08:11:27.054Z,59.46
2017-08-09T08:12:07.968Z,58.52
2017-08-09T08:12:48.905Z,57.48
2017-08-09T08:13:29.810Z,56.45
2017-08-09T08:14:10.706Z,56.37
2017-08-09T08:14:51.611Z,55.14
2017-08-09T08:15:32.511Z,54.27
2017-08-09T08:16:13.440Z,53.59
2017-08-09T08:16:54.344Z,53.69
2017-08-09T08:17:35.223Z,54.07
2017-08-09T08:18:16.150Z,53.78
2017-08-09T08:18:57.019Z,52.81
2017-08-09T08:19:37.919Z,54.24
2017-08-09T08:20:18.824Z,54.14
2017-08-09T08:20:59.734Z,53.85
2017-08-09T08:21:40.644Z,53.47
2017-08-09T08:22:21.526Z,54.14
2017-08-09T08:23:02.467Z,53.75
2017-08-09T08:23:43.351Z,54.05
2017-08-09T08:24:24.256Z,54.36
2017-08-09T08:25:05.167Z,53.59
2017-08-09T08:25:46.067Z,54.21
2017-08-09T08:26:26.969Z,56.77
2017-08-09T08:27:07.859Z,58.47
2017-08-09T08:27:51.148Z,58.52
2017-08-09T08:28:32.064Z,57.87
2017-08-09T08:29:12.961Z,57.68
2017-08-09T08:29:53.868Z,59.49
2017-08-09T08:30:34.767Z,60.04
2017-08-09T08:31:15.677Z,59.39
2017-08-09T08:31:56.578Z,60.57
2017-08-09T08:32:37.467Z,61.79
2017-08-09T08:33:18.385Z,62.95
2017-08-09T08:33:59.282Z,62.95
2017-08-09T08:34:40.212Z,62.85
2017-08-09T08:35:21.121Z,63.37
2017-08-09T08:36:02.023Z,61.53
2017-08-09T08:36:42.916Z,60.3
2017-08-09T08:37:23.836Z,59.46
2017-08-09T08:38:04.734Z,56.75
2017-08-09T08:38:45.645Z,56.29
2017-08-09T08:39:26.556Z,57.07
2017-08-09T08:40:07.463Z,57.43
2017-08-09T08:40:48.358Z,58.65
2017-08-09T08:41:29.299Z,58.92
2017-08-09T08:42:10.163Z,58.65
2017-08-09T08:42:51.082Z,59.5
2017-08-09T08:43:31.971Z,59.59
2017-08-09T08:44:12.869Z,59.59
2017-08-09T08:44:53.772Z,59.01
2017-08-09T08:45:34.691Z,58.47
2017-08-09T08:46:15.586Z,56.94
2017-08-09T08:46:56.489Z,55.44
2017-08-09T08:47:37.387Z,53.73
2017-08-09T08:48:18.338Z,52.3
2017-08-09T08:48:59.236Z,51.91